Time,TemperatureF,DewpointF,PressureIn,WindDirection,WindDirectionDegrees,WindSpeedMPH,WindSpeedGustMPH,Humidity,HourlyPrecipIn,Conditions,Clouds,dailyrainin,SolarRadiationWatts/m^2,SoftwareType,DateUTC
2013-08-05 00:02:00,52.0,51.0,-100.00,NE,44,1.0,2.0,98,0.00,,,0.03,0.000000,,2013-08-05 04:02:00,
2013-08-05 00:12:00,52.0,51.0,-100.00,NE,44,1.0,2.0,98,0.00,,,0.03,0.000000,,2013-08-05 04:12:00,
2013-08-05 00:43:00,50.0,49.0,-100.00,SSE,164,1.0,4.0,98,0.00,,,0.03,0.000000,,2013-08-05 04:43:00,
2013-08-05 00:52:00,50.0,49.0,-100.00,SSE,164,1.0,4.0,98,0.00,,,0.03,0.000000,,2013-08-05 04:52:00,
2013-08-05 01:02:00,50.0,49.0,-100.00,SSE,164,1.0,4.0,98,0.00,,,0.03,0.000000,,2013-08-05 05:02:00,
2013-08-05 01:12:00,50.0,49.0,-100.00,SSE,164,1.0,4.0,98,0.00,,,0.03,0.000000,,2013-08-05 05:12:00,
2013-08-05 01:43:00,50.0,49.0,-100.00,SE,141,0.0,1.0,98,0.00,,,0.03,0.000000,,2013-08-05 05:43:00,
2013-08-05 01:53:00,50.0,49.0,-100.00,SE,141,0.0,1.0,98,0.00,,,0.03,0.000000,,2013-08-05 05:53:00,
2013-08-05 02:02:00,50.0,49.0,-100.00,SE,141,0.0,1.0,98,0.00,,,0.03,0.000000,,2013-08-05 06:02:00,
2013-08-05 02:12:00,50.0,49.0,-100.00,SE,141,0.0,1.0,98,0.00,,,0.03,0.000000,,2013-08-05 06:12:00,
2013-08-05 02:43:00,51.0,50.0,-100.00,SSE,148,0.0,2.0,98,0.00,,,0.03,0.000000,,2013-08-05 06:43:00,
2013-08-05 02:52:00,51.0,50.0,-100.00,SSE,148,0.0,2.0,98,0.00,,,0.03,0.000000,,2013-08-05 06:52:00,
2013-08-05 03:02:00,51.0,50.0,-100.00,SSE,148,0.0,2.0,98,0.00,,,0.03,0.000000,,2013-08-05 07:02:00,
2013-08-05 03:12:00,51.0,50.0,-100.00,SSE,148,0.0,2.0,98,0.00,,,0.03,0.000000,,2013-08-05 07:12:00,
2013-08-05 03:43:00,51.0,50.0,-100.00,North,352,1.0,3.0,98,0.00,,,0.03,0.000000,,2013-08-05 07:43:00,
2013-08-05 03:53:00,51.0,50.0,-100.00,North,352,1.0,3.0,98,0.00,,,0.03,0.000000,,2013-08-05 07:53:00,
2013-08-05 04:02:00,51.0,50.0,-100.00,North,352,1.0,3.0,98,0.00,,,0.03,0.000000,,2013-08-05 08:02:00,
2013-08-05 04:12:00,51.0,50.0,-100.00,North,352,1.0,3.0,98,0.00,,,0.03,0.000000,,2013-08-05 08:12:00,
2013-08-05 04:14:00,50.0,49.0,-100.00,NNW,341,1.0,2.0,98,0.00,,,0.03,0.000000,,2013-08-05 08:14:00,
2013-08-05 04:53:00,50.0,49.0,-100.00,NNW,341,1.0,2.0,98,0.00,,,0.03,0.000000,,2013-08-05 08:53:00,
2013-08-05 05:08:00,50.0,49.0,-100.00,NNW,341,1.0,2.0,98,0.00,,,0.03,0.000000,,2013-08-05 09:08:00,
2013-08-05 05:14:00,48.0,47.0,-100.00,WSW,241,0.0,2.0,98,0.00,,,0.03,0.000000,,2013-08-05 09:14:00,
2013-08-05 05:49:00,48.0,47.0,-100.00,WSW,241,0.0,2.0,98,0.00,,,0.03,0.000000,,2013-08-05 09:49:00,
2013-08-05 06:13:00,48.0,47.0,-100.00,WSW,241,0.0,2.0,98,0.00,,,0.03,0.000000,,2013-08-05 10:13:00,
2013-08-05 06:14:00,46.0,45.0,-100.00,ENE,72,0.0,0.0,98,0.00,,,0.03,4.000000,,2013-08-05 10:14:00,
2013-08-05 06:50:00,46.0,45.0,-100.00,ENE,72,0.0,0.0,98,0.00,,,0.03,4.000000,,2013-08-05 10:50:00,
2013-08-05 07:10:00,46.0,45.0,-100.00,ENE,72,0.0,0.0,98,0.00,,,0.03,4.000000,,2013-08-05 11:10:00,
2013-08-05 07:14:00,47.0,46.0,-100.00,NE,55,0.0,1.0,98,0.00,,,0.03,29.000000,,2013-08-05 11:14:00,
2013-08-05 07:54:00,47.0,46.0,-100.00,NE,55,0.0,1.0,98,0.00,,,0.03,29.000000,,2013-08-05 11:54:00,
2013-08-05 08:14:00,56.0,55.0,-100.00,East,90,1.0,1.0,95,-99.99,,,0.03,260.000000,,2013-08-05 12:14:00,
2013-08-05 08:53:00,56.0,55.0,-100.00,East,90,1.0,1.0,95,-99.99,,,0.03,260.000000,,2013-08-05 12:53:00,
2013-08-05 09:02:00,56.0,55.0,-100.00,East,90,1.0,1.0,95,-99.99,,,0.03,260.000000,,2013-08-05 13:02:00,
2013-08-05 10:14:00,66.0,45.0,-100.00,WNW,291,4.0,11.0,47,-99.99,,,0.03,599.000000,,2013-08-05 14:14:00,
2013-08-05 10:42:00,66.0,45.0,-100.00,WNW,291,4.0,11.0,47,-99.99,,,0.03,599.000000,,2013-08-05 14:42:00,
2013-08-05 10:49:00,66.0,45.0,-100.00,WNW,291,4.0,11.0,47,-99.99,,,0.03,599.000000,,2013-08-05 14:49:00,
2013-08-05 11:08:00,66.0,45.0,-100.00,WNW,291,4.0,11.0,47,-99.99,,,0.03,599.000000,,2013-08-05 15:08:00,
2013-08-05 11:14:00,69.0,46.0,-100.00,NW,323,3.0,11.0,43,0.00,,,0.03,714.000000,,2013-08-05 15:14:00,
2013-08-05 12:00:00,69.0,46.0,-100.00,NW,323,3.0,11.0,43,0.00,,,0.03,714.000000,,2013-08-05 16:00:00,
2013-08-05 12:14:00,70.0,45.0,-100.00,NNW,329,6.0,14.0,40,0.00,,,0.03,843.000000,,2013-08-05 16:14:00,
2013-08-05 12:45:00,70.0,45.0,-100.00,NNW,329,6.0,14.0,40,0.00,,,0.03,843.000000,,2013-08-05 16:45:00,
2013-08-05 13:00:00,70.0,45.0,-100.00,NNW,329,6.0,14.0,40,0.00,,,0.03,843.000000,,2013-08-05 17:00:00,
2013-08-05 13:09:00,70.0,45.0,-100.00,NNW,329,6.0,14.0,40,0.00,,,0.03,843.000000,,2013-08-05 17:09:00,
2013-08-05 14:14:00,72.0,43.0,-100.00,NNW,344,5.0,14.0,35,-99.99,,,0.02,884.000000,,2013-08-05 18:14:00,
2013-08-05 14:45:00,72.0,43.0,-100.00,NNW,344,5.0,14.0,35,-99.99,,,0.02,884.000000,,2013-08-05 18:45:00,
2013-08-05 14:54:00,72.0,43.0,-100.00,NNW,344,5.0,14.0,35,-99.99,,,0.02,884.000000,,2013-08-05 18:54:00,
2013-08-05 15:05:00,72.0,43.0,-100.00,NNW,344,5.0,14.0,35,-99.99,,,0.02,884.000000,,2013-08-05 19:05:00,
2013-08-05 15:14:00,73.0,44.0,-100.00,North,1,6.0,13.0,36,0.00,,,0.02,822.000000,,2013-08-05 19:14:00,
2013-08-05 15:54:00,73.0,44.0,-100.00,North,1,6.0,13.0,36,0.00,,,0.02,822.000000,,2013-08-05 19:54:00,
2013-08-05 16:09:00,73.0,44.0,-100.00,North,1,6.0,13.0,36,0.00,,,0.02,822.000000,,2013-08-05 20:09:00,
2013-08-05 16:14:00,74.0,47.0,-100.00,NNE,12,4.0,12.0,38,0.00,,,0.00,709.000000,,2013-08-05 20:14:00,
2013-08-05 16:48:00,74.0,47.0,-100.00,NNE,12,4.0,12.0,38,0.00,,,0.00,709.000000,,2013-08-05 20:48:00,
2013-08-05 17:03:00,74.0,47.0,-100.00,NNE,12,4.0,12.0,38,0.00,,,0.00,709.000000,,2013-08-05 21:03:00,
2013-08-05 17:10:00,74.0,47.0,-100.00,NNE,12,4.0,12.0,38,0.00,,,0.00,709.000000,,2013-08-05 21:10:00,
2013-08-05 17:48:00,73.0,45.0,-100.00,NNW,329,4.0,12.0,37,0.00,,,0.00,554.000000,,2013-08-05 21:48:00,
2013-08-05 17:54:00,73.0,45.0,-100.00,NNW,329,4.0,12.0,37,0.00,,,0.00,554.000000,,2013-08-05 21:54:00,
2013-08-05 18:05:00,73.0,45.0,-100.00,NNW,329,4.0,12.0,37,0.00,,,0.00,554.000000,,2013-08-05 22:05:00,
2013-08-05 18:14:00,72.0,45.0,-100.00,NNW,346,4.0,7.0,38,0.00,,,0.00,386.000000,,2013-08-05 22:14:00,
2013-08-05 18:45:00,72.0,45.0,-100.00,NNW,346,4.0,7.0,38,0.00,,,0.00,386.000000,,2013-08-05 22:45:00,
2013-08-05 18:53:00,72.0,45.0,-100.00,NNW,346,4.0,7.0,38,0.00,,,0.00,386.000000,,2013-08-05 22:53:00,
2013-08-05 19:14:00,67.0,44.0,-100.00,NNW,335,1.0,8.0,44,0.00,,,0.00,139.000000,,2013-08-05 23:14:00,
2013-08-05 19:33:00,67.0,44.0,-100.00,NNW,335,1.0,8.0,44,0.00,,,0.00,139.000000,,2013-08-05 23:33:00,
2013-08-05 19:46:00,67.0,44.0,-100.00,NNW,335,1.0,8.0,44,0.00,,,0.00,139.000000,,2013-08-05 23:46:00,
2013-08-05 20:02:00,67.0,44.0,-100.00,NNW,335,1.0,8.0,44,0.00,,,0.00,139.000000,,2013-08-06 00:02:00,
2013-08-05 20:14:00,56.0,51.0,-100.00,South,187,0.0,2.0,82,0.00,,,0.00,12.000000,,2013-08-06 00:14:00,
2013-08-05 21:14:00,53.0,50.0,-100.00,North,356,1.0,3.0,90,0.00,,,0.00,1.000000,,2013-08-06 01:14:00,
2013-08-05 21:53:00,53.0,50.0,-100.00,North,356,1.0,3.0,90,0.00,,,0.00,1.000000,,2013-08-06 01:53:00,
2013-08-05 22:03:00,53.0,50.0,-100.00,North,356,1.0,3.0,90,0.00,,,0.00,1.000000,,2013-08-06 02:03:00,
2013-08-05 22:14:00,51.0,49.0,-100.00,NNE,32,1.0,4.0,94,0.00,,,0.00,0.000000,,2013-08-06 02:14:00,
2013-08-05 22:33:00,51.0,49.0,-100.00,NNE,32,1.0,4.0,94,0.00,,,0.00,0.000000,,2013-08-06 02:33:00,
2013-08-05 22:50:00,51.0,49.0,-100.00,NNE,32,1.0,4.0,94,0.00,,,0.00,0.000000,,2013-08-06 02:50:00,
2013-08-05 23:02:00,51.0,49.0,-100.00,NNE,32,1.0,4.0,94,0.00,,,0.00,0.000000,,2013-08-06 03:02:00,
2013-08-05 23:52:00,49.0,48.0,-100.00,NW,311,1.0,3.0,96,0.00,,,0.00,0.000000,,2013-08-06 03:52:00,